Time;durP1;ratioP1;P1;durP2;ratioP2;P2;SDS_P1;SDS_P2;PMS_P1;PMS_P2;Temp;Humidity;BMP_temperature;BMP_pressure;BME280_temperature;BME280_humidity;BME280_pressure;Samples;Min_cycle;Max_cycle;Signal;HPM_P1;HPM_P2
2022/02/18 00:02:11;;;;;;;2.30;1.30;;;25.70;57.50;;;;;;5015526;28;20450;-82
2022/02/18 00:04:38;;;;;;;1.53;1.10;;;25.70;57.60;;;;;;5015931;28;20436;-92
2022/02/18 00:07:05;;;;;;;1.77;1.30;;;25.70;57.50;;;;;;5015471;28;20439;-93
2022/02/18 00:09:32;;;;;;;1.90;1.43;;;25.70;57.50;;;;;;5015424;28;20454;-82
2022/02/18 00:11:59;;;;;;;2.23;1.80;;;25.70;57.60;;;;;;5015637;28;20845;-91
2022/02/18 00:14:25;;;;;;;1.30;1.17;;;25.70;57.60;;;;;;5015624;28;20448;-93
2022/02/18 00:16:52;;;;;;;1.63;1.20;;;25.70;57.50;;;;;;5015330;28;20483;-94
2022/02/18 00:19:20;;;;;;;1.53;1.30;;;25.70;57.60;;;;;;5015520;28;20443;-93
2022/02/18 00:21:48;;;;;;;1.50;1.00;;;25.70;57.50;;;;;;5014995;28;20439;-81
2022/02/18 00:24:15;;;;;;;1.97;1.30;;;25.70;57.50;;;;;;5015065;28;20470;-94
2022/02/18 00:26:41;;;;;;;2.57;1.43;;;25.70;57.50;;;;;;5015019;28;20451;-93
2022/02/18 00:29:08;;;;;;;1.63;1.20;;;25.60;57.50;;;;;;5015196;28;20439;-82
2022/02/18 00:31:35;;;;;;;1.87;1.40;;;25.60;57.50;;;;;;5015184;28;20447;-82
2022/02/18 00:34:02;;;;;;;2.10;0.90;;;25.70;57.60;;;;;;5014887;28;20790;-93
2022/02/18 00:36:30;;;;;;;1.40;1.20;;;25.60;57.50;;;;;;5015330;28;20514;-81
2022/02/18 00:38:56;;;;;;;1.50;1.23;;;25.70;57.40;;;;;;5015095;28;20440;-85
2022/02/18 00:41:23;;;;;;;1.60;1.10;;;25.70;57.50;;;;;;5015080;28;20436;-93
2022/02/18 00:43:50;;;;;;;1.50;1.00;;;25.70;57.40;;;;;;5015139;28;20449;-92
2022/02/18 00:46:17;;;;;;;1.90;1.37;;;25.80;57.60;;;;;;5014947;28;20451;-93
2022/02/18 00:48:44;;;;;;;2.17;1.50;;;25.60;57.50;;;;;;5015103;28;20466;-94
2022/02/18 00:51:11;;;;;;;1.40;1.30;;;25.60;57.40;;;;;;5014929;28;20435;-83
2022/02/18 00:53:40;;;;;;;1.70;1.20;;;25.60;57.50;;;;;;5014509;28;20930;-82
2022/02/18 00:56:08;;;;;;;1.50;1.03;;;25.60;57.40;;;;;;5014720;28;20467;-82
2022/02/18 00:58:35;;;;;;;1.47;1.00;;;25.60;57.40;;;;;;5013557;28;20471;-93
2022/02/18 01:01:01;;;;;;;3.40;1.23;;;25.60;57.40;;;;;;5014539;28;20494;-94
2022/02/18 01:03:28;;;;;;;2.17;1.30;;;25.60;57.50;;;;;;5014552;28;20758;-82
2022/02/18 01:05:55;;;;;;;2.20;1.10;;;25.60;57.50;;;;;;5014403;28;20439;-93
2022/02/18 01:08:22;;;;;;;1.73;1.33;;;25.50;57.40;;;;;;5014492;28;20452;-95
2022/02/18 01:10:50;;;;;;;2.13;1.30;;;25.60;57.50;;;;;;5014757;28;20450;-82
2022/02/18 01:13:16;;;;;;;1.30;1.10;;;25.50;57.40;;;;;;5014432;28;20454;-93
2022/02/18 01:15:43;;;;;;;1.67;1.20;;;25.50;57.50;;;;;;5014087;28;20444;-92
2022/02/18 01:18:10;;;;;;;1.50;1.40;;;25.50;57.50;;;;;;5014225;28;20494;-94
2022/02/18 01:20:37;;;;;;;1.20;1.00;;;25.50;57.40;;;;;;5014106;28;20447;-93
2022/02/18 01:23:04;;;;;;;1.80;1.53;;;25.50;57.50;;;;;;5014380;28;20439;-93
2022/02/18 01:25:31;;;;;;;1.30;1.00;;;25.50;57.50;;;;;;5014194;28;20427;-92
2022/02/18 01:27:59;;;;;;;1.37;1.23;;;25.50;57.50;;;;;;5014003;28;20447;-83
2022/02/18 01:30:27;;;;;;;2.27;1.07;;;25.40;57.50;;;;;;5014096;28;20447;-93
2022/02/18 01:32:54;;;;;;;2.53;1.53;;;25.40;57.50;;;;;;5013993;28;20969;-92
2022/02/18 01:35:22;;;;;;;1.80;1.07;;;25.50;57.50;;;;;;5014009;28;20448;-92
2022/02/18 01:37:51;;;;;;;1.50;1.10;;;25.50;57.50;;;;;;5014001;28;20491;-83
2022/02/18 01:40:20;;;;;;;1.30;1.10;;;25.50;57.50;;;;;;5014058;28;20474;-82
2022/02/18 01:42:47;;;;;;;1.93;1.20;;;25.50;57.40;;;;;;5013925;28;20451;-93
2022/02/18 01:45:15;;;;;;;1.37;0.80;;;25.40;57.60;;;;;;5014244;28;20443;-93
2022/02/18 01:47:42;;;;;;;1.20;0.80;;;25.40;57.50;;;;;;5013829;28;20471;-94
2022/02/18 01:50:10;;;;;;;1.73;1.30;;;25.40;57.50;;;;;;5013821;28;20440;-82
2022/02/18 01:52:40;;;;;;;1.37;1.20;;;25.40;57.40;;;;;;5013670;28;20451;-82
2022/02/18 01:55:11;;;;;;;1.90;1.33;;;25.40;57.50;;;;;;5013596;28;20506;-93
2022/02/18 01:57:39;;;;;;;1.70;0.93;;;25.40;57.40;;;;;;5013558;28;21000;-82
2022/02/18 02:00:07;;;;;;;1.20;1.00;;;25.40;57.40;;;;;;5013874;28;20855;-93
2022/02/18 02:02:35;;;;;;;1.33;1.10;;;25.40;57.60;;;;;;5013958;28;20443;-81
2022/02/18 02:05:02;;;;;;;1.90;1.57;;;25.40;57.50;;;;;;5013734;28;20938;-93
2022/02/18 02:07:29;;;;;;;1.37;1.17;;;25.40;57.40;;;;;;5013929;28;20442;-82
2022/02/18 02:09:56;;;;;;;2.00;1.00;;;25.40;57.50;;;;;;5015763;28;20442;-82
2022/02/18 02:12:22;;;;;;;4.10;1.37;;;25.40;57.50;;;;;;5017715;28;20806;-93
2022/02/18 02:14:49;;;;;;;1.93;1.20;;;25.30;57.50;;;;;;5017747;28;20453;-81
2022/02/18 02:17:16;;;;;;;1.73;1.17;;;25.40;57.50;;;;;;5017427;28;20509;-92
2022/02/18 02:19:45;;;;;;;1.70;1.30;;;25.40;57.50;;;;;;5017406;28;20440;-92
2022/02/18 02:22:15;;;;;;;3.20;1.40;;;25.40;57.50;;;;;;5017807;28;20446;-91
2022/02/18 02:24:43;;;;;;;1.80;1.30;;;25.40;57.50;;;;;;5017384;28;20444;-91
2022/02/18 02:27:10;;;;;;;2.10;1.40;;;25.30;57.50;;;;;;5017329;28;20442;-82
2022/02/18 02:29:37;;;;;;;1.33;0.90;;;25.30;57.50;;;;;;5017410;28;20443;-82
2022/02/18 02:32:04;;;;;;;1.17;1.07;;;25.30;57.60;;;;;;5017577;28;20515;-93
2022/02/18 02:34:33;;;;;;;2.07;1.20;;;25.30;57.60;;;;;;5017547;28;20454;-93
2022/02/18 02:37:00;;;;;;;2.00;1.40;;;25.30;57.60;;;;;;5017462;28;20477;-92
2022/02/18 02:39:27;;;;;;;1.37;1.07;;;25.20;57.50;;;;;;5018513;28;20447;-93
2022/02/18 02:41:57;;;;;;;1.40;1.00;;;25.30;57.50;;;;;;5017665;28;20439;-93
2022/02/18 02:44:24;;;;;;;1.93;1.00;;;25.30;57.60;;;;;;5017183;28;20832;-93
2022/02/18 02:46:51;;;;;;;2.30;1.17;;;25.30;57.50;;;;;;5016744;28;20462;-93
2022/02/18 02:49:18;;;;;;;1.43;1.33;;;25.30;57.50;;;;;;5017166;28;20439;-93
2022/02/18 02:51:44;;;;;;;1.30;1.00;;;25.30;57.50;;;;;;5017007;28;20439;-94
2022/02/18 02:54:11;;;;;;;1.40;1.20;;;25.30;57.50;;;;;;5016896;28;20439;-82
2022/02/18 02:56:38;;;;;;;1.40;1.20;;;25.20;57.50;;;;;;5016650;28;20482;-89
2022/02/18 02:59:06;;;;;;;2.03;1.17;;;25.20;57.50;;;;;;5016582;28;20476;-93
2022/02/18 03:01:33;;;;;;;1.30;1.17;;;25.20;57.40;;;;;;5016642;28;20448;-82
2022/02/18 03:04:00;;;;;;;1.43;1.07;;;25.20;57.50;;;;;;5016545;28;20806;-94
2022/02/18 03:06:27;;;;;;;1.40;0.90;;;25.20;57.50;;;;;;5016553;28;20444;-82
2022/02/18 03:08:54;;;;;;;1.50;1.10;;;25.20;57.60;;;;;;5016485;28;20440;-94
2022/02/18 03:11:21;;;;;;;1.77;1.20;;;25.20;57.50;;;;;;5016761;28;20443;-93
2022/02/18 03:13:50;;;;;;;1.20;1.00;;;25.20;57.60;;;;;;5016596;28;20526;-84
2022/02/18 03:16:19;;;;;;;1.83;1.23;;;25.20;57.50;;;;;;5016438;28;20432;-94
2022/02/18 03:18:47;;;;;;;1.53;1.10;;;25.20;57.60;;;;;;5016311;28;20487;-93
2022/02/18 03:21:14;;;;;;;1.60;1.20;;;25.10;57.60;;;;;;5015443;28;20435;-93
2022/02/18 03:23:45;;;;;;;1.33;1.10;;;25.20;57.70;;;;;;5016308;28;20447;-82
2022/02/18 03:26:12;;;;;;;1.90;1.30;;;25.10;57.60;;;;;;5016333;28;20792;-81
2022/02/18 03:28:39;;;;;;;1.40;1.23;;;25.10;57.60;;;;;;5016300;28;20451;-82
2022/02/18 03:31:08;;;;;;;1.30;1.00;;;25.20;57.60;;;;;;5016025;28;20440;-82
2022/02/18 03:33:37;;;;;;;1.70;1.17;;;25.10;57.60;;;;;;5016109;28;20808;-81
2022/02/18 03:36:04;;;;;;;2.53;1.50;;;25.20;57.60;;;;;;5015878;28;20447;-82
2022/02/18 03:38:31;;;;;;;1.47;0.90;;;25.10;57.60;;;;;;5016063;28;20990;-94
2022/02/18 03:40:57;;;;;;;1.90;1.10;;;25.10;57.50;;;;;;5016006;28;20436;-82
2022/02/18 03:43:24;;;;;;;1.60;1.20;;;25.10;57.60;;;;;;5015921;28;20925;-93
2022/02/18 03:45:51;;;;;;;1.40;1.10;;;25.10;57.50;;;;;;5015865;28;20444;-82
2022/02/18 03:48:17;;;;;;;2.33;1.30;;;25.10;57.50;;;;;;5015791;28;20993;-94
2022/02/18 03:50:46;;;;;;;1.10;0.90;;;25.10;57.60;;;;;;5015939;28;20447;-93
2022/02/18 03:53:14;;;;;;;1.70;1.20;;;25.10;57.60;;;;;;5015758;28;20447;-93
2022/02/18 03:55:41;;;;;;;2.30;1.50;;;25.10;57.60;;;;;;5015793;28;20444;-92
2022/02/18 03:58:08;;;;;;;1.83;1.23;;;25.10;57.60;;;;;;5015658;28;20495;-93
2022/02/18 04:00:35;;;;;;;1.83;1.27;;;25.10;57.60;;;;;;5015757;28;20431;-81
2022/02/18 04:03:02;;;;;;;1.40;1.00;;;25.10;57.60;;;;;;5015703;28;20436;-93
2022/02/18 04:05:29;;;;;;;1.97;1.20;;;25.10;57.60;;;;;;5015511;28;20502;-83
2022/02/18 04:07:57;;;;;;;1.50;1.20;;;25.10;57.60;;;;;;5015647;28;20443;-93
2022/02/18 04:10:23;;;;;;;1.30;1.10;;;25.00;57.50;;;;;;5015532;28;20442;-94
2022/02/18 04:12:50;;;;;;;1.73;1.37;;;25.00;57.60;;;;;;5015317;28;20435;-93
2022/02/18 04:15:17;;;;;;;2.17;1.13;;;25.00;57.60;;;;;;5015311;28;20802;-94
2022/02/18 04:17:44;;;;;;;1.80;1.30;;;25.00;57.50;;;;;;5015191;28;20482;-93
2022/02/18 04:20:11;;;;;;;1.30;1.00;;;25.00;57.50;;;;;;5015348;28;20439;-82
2022/02/18 04:22:38;;;;;;;1.53;1.10;;;25.00;57.50;;;;;;5015213;28;20446;-82
2022/02/18 04:25:08;;;;;;;1.53;1.10;;;25.00;57.60;;;;;;5015403;28;20796;-93
2022/02/18 04:27:35;;;;;;;1.40;1.00;;;25.00;57.60;;;;;;5014924;28;20443;-82
2022/02/18 04:30:02;;;;;;;3.00;1.10;;;25.00;57.60;;;;;;5014856;28;20927;-94
2022/02/18 04:32:28;;;;;;;1.33;1.20;;;25.00;57.50;;;;;;5014662;28;20515;-93
2022/02/18 04:34:55;;;;;;;1.70;1.40;;;25.00;57.60;;;;;;5014920;28;20439;-82
2022/02/18 04:37:22;;;;;;;1.37;0.93;;;25.00;57.70;;;;;;5014986;28;20462;-82
2022/02/18 04:39:49;;;;;;;1.30;1.10;;;25.00;57.60;;;;;;5015013;28;20439;-94
2022/02/18 04:42:18;;;;;;;1.60;1.10;;;25.00;57.60;;;;;;5014740;28;20440;-93
2022/02/18 04:44:45;;;;;;;1.47;1.30;;;25.00;57.60;;;;;;5014607;28;20444;-93
2022/02/18 04:47:12;;;;;;;2.03;1.17;;;24.90;57.60;;;;;;5014554;28;20981;-87
2022/02/18 04:49:38;;;;;;;1.90;1.33;;;25.00;57.70;;;;;;5014864;28;20454;-81
2022/02/18 04:52:05;;;;;;;1.53;1.23;;;24.90;57.60;;;;;;5014864;28;20444;-82
2022/02/18 04:54:32;;;;;;;1.70;1.30;;;25.00;57.60;;;;;;5014654;28;20462;-82
2022/02/18 04:56:59;;;;;;;1.40;1.00;;;25.00;57.70;;;;;;5014316;28;20443;-93
2022/02/18 04:59:27;;;;;;;1.50;1.10;;;24.90;57.60;;;;;;5031027;28;20498;-82
2022/02/18 05:01:56;;;;;;;1.57;1.10;;;25.10;57.70;;;;;;5033847;28;20443;-81
2022/02/18 05:04:23;;;;;;;2.10;1.47;;;25.00;57.60;;;;;;5033901;28;20439;-87
2022/02/18 05:06:50;;;;;;;2.97;1.20;;;25.00;57.60;;;;;;5034252;28;20504;-93
2022/02/18 05:09:17;;;;;;;1.47;1.30;;;25.00;57.50;;;;;;5034012;28;20820;-82
2022/02/18 05:11:44;;;;;;;1.10;1.00;;;25.00;57.50;;;;;;5033807;28;20443;-92
2022/02/18 05:14:10;;;;;;;2.53;1.40;;;25.00;57.50;;;;;;5034145;28;20443;-92
2022/02/18 05:16:39;;;;;;;2.40;1.50;;;25.10;57.40;;;;;;5033961;28;20820;-81
2022/02/18 05:19:09;;;;;;;1.27;1.10;;;25.10;57.40;;;;;;5033737;28;20854;-81
2022/02/18 05:21:37;;;;;;;1.40;1.20;;;25.10;57.40;;;;;;5033786;28;20442;-82
2022/02/18 05:24:04;;;;;;;1.93;1.70;;;25.10;57.30;;;;;;5033599;28;20435;-82
2022/02/18 05:26:31;;;;;;;1.70;1.27;;;25.10;57.20;;;;;;5033715;28;20447;-82
2022/02/18 05:28:58;;;;;;;1.30;1.10;;;25.10;57.30;;;;;;5033623;28;20442;-90
2022/02/18 05:31:25;;;;;;;1.80;1.30;;;25.20;57.20;;;;;;5029806;28;20800;-81
2022/02/18 05:33:54;;;;;;;1.40;1.07;;;25.20;57.20;;;;;;5014103;28;20437;-92
2022/02/18 05:36:20;;;;;;;1.60;1.40;;;25.20;57.20;;;;;;5014530;28;20436;-93
2022/02/18 05:38:47;;;;;;;1.57;1.07;;;25.10;57.20;;;;;;5014127;28;20502;-93
2022/02/18 05:41:14;;;;;;;1.60;1.40;;;25.30;57.30;;;;;;5014000;28;20442;-94
2022/02/18 05:43:41;;;;;;;1.77;1.20;;;25.20;57.20;;;;;;5013358;28;20447;-91
2022/02/18 05:46:08;;;;;;;1.20;0.90;;;25.20;57.10;;;;;;5014414;28;20440;-92
2022/02/18 05:48:35;;;;;;;1.70;1.20;;;25.20;57.00;;;;;;5016362;28;20443;-94
2022/02/18 05:51:05;;;;;;;1.40;0.93;;;25.20;57.10;;;;;;5014380;28;20447;-93
2022/02/18 05:53:32;;;;;;;1.70;1.20;;;25.20;57.00;;;;;;5020582;28;20439;-93
2022/02/18 05:56:00;;;;;;;1.20;1.07;;;25.20;57.10;;;;;;5031265;28;20801;-81
2022/02/18 05:58:27;;;;;;;1.90;1.43;;;25.10;57.00;;;;;;5013505;28;20494;-93
2022/02/18 06:00:54;;;;;;;1.70;1.27;;;25.20;57.10;;;;;;5030769;28;20450;-93
2022/02/18 06:03:21;;;;;;;1.30;1.10;;;25.10;57.00;;;;;;5033300;28;20446;-93
2022/02/18 06:05:48;;;;;;;1.30;1.10;;;25.20;57.00;;;;;;5033599;28;20443;-90
2022/02/18 06:08:16;;;;;;;1.83;1.27;;;25.20;56.90;;;;;;5032171;28;20477;-81
2022/02/18 06:10:43;;;;;;;1.33;1.03;;;25.20;57.00;;;;;;5013693;28;20463;-91
2022/02/18 06:13:09;;;;;;;1.53;1.37;;;25.20;56.90;;;;;;5013579;28;20477;-83
2022/02/18 06:15:36;;;;;;;2.10;1.20;;;25.20;57.00;;;;;;5022299;28;20918;-83
2022/02/18 06:18:03;;;;;;;1.60;1.20;;;25.20;56.90;;;;;;5033183;28;20478;-93
2022/02/18 06:20:30;;;;;;;1.40;1.20;;;25.20;57.00;;;;;;5033523;28;20461;-95
2022/02/18 06:22:57;;;;;;;1.40;1.13;;;25.20;56.90;;;;;;5033185;28;20449;-94
2022/02/18 06:25:25;;;;;;;1.70;1.33;;;25.10;56.90;;;;;;5033299;28;20964;-94
2022/02/18 06:28:02;;;;;;;1.47;1.20;;;25.10;57.00;;;;;;5033532;28;20447;-94
2022/02/18 06:30:29;;;;;;;1.80;1.23;;;25.20;57.00;;;;;;5032931;28;20446;-82
2022/02/18 06:32:56;;;;;;;1.30;1.10;;;25.20;57.00;;;;;;5033052;28;20446;-95
2022/02/18 06:35:23;;;;;;;1.77;1.20;;;25.20;57.00;;;;;;5033225;28;20434;-82
2022/02/18 06:37:50;;;;;;;2.57;1.40;;;25.20;57.00;;;;;;5032951;28;20442;-93
2022/02/18 06:40:16;;;;;;;1.80;1.30;;;25.20;57.00;;;;;;5032962;28;20941;-82
2022/02/18 06:42:44;;;;;;;1.30;1.13;;;25.20;57.00;;;;;;5032643;28;20443;-82
2022/02/18 06:45:15;;;;;;;2.07;1.20;;;25.20;57.00;;;;;;5032843;28;20454;-82
2022/02/18 06:47:42;;;;;;;3.20;1.53;;;25.10;57.00;;;;;;5032847;28;20467;-83
2022/02/18 06:50:09;;;;;;;1.40;1.10;;;25.20;57.00;;;;;;5033097;28;20445;-82
2022/02/18 06:52:36;;;;;;;1.20;0.90;;;25.20;57.00;;;;;;5032973;28;20446;-81
2022/02/18 06:55:03;;;;;;;2.07;1.30;;;25.20;57.00;;;;;;5033180;28;20469;-85
2022/02/18 06:57:29;;;;;;;1.80;1.33;;;25.20;57.00;;;;;;5036849;28;20442;-83
2022/02/18 06:59:58;;;;;;;1.73;1.07;;;25.20;57.00;;;;;;5037077;28;20490;-83
2022/02/18 07:02:24;;;;;;;5.17;1.50;;;25.20;57.10;;;;;;5036496;28;20801;-82
2022/02/18 07:04:51;;;;;;;1.60;1.30;;;25.20;57.20;;;;;;5036501;28;20438;-96
2022/02/18 07:07:18;;;;;;;1.83;1.30;;;25.20;57.30;;;;;;5036818;28;20443;-82
2022/02/18 07:09:45;;;;;;;3.30;1.30;;;25.20;57.30;;;;;;5036384;28;20782;-82
2022/02/18 07:12:12;;;;;;;1.93;1.10;;;25.20;57.30;;;;;;5039006;28;20497;-84
2022/02/18 07:14:38;;;;;;;2.10;1.17;;;25.30;57.20;;;;;;5036126;28;20435;-82
2022/02/18 07:17:07;;;;;;;1.10;1.00;;;25.30;57.40;;;;;;5036842;28;20489;-96
2022/02/18 07:19:34;;;;;;;2.40;1.20;;;25.30;57.50;;;;;;5036277;28;20493;-83
2022/02/18 07:22:00;;;;;;;2.17;1.43;;;25.30;57.60;;;;;;5036204;28;20449;-83
2022/02/18 07:24:27;;;;;;;1.60;1.20;;;25.30;57.50;;;;;;5036270;28;20435;-83
2022/02/18 07:26:54;;;;;;;1.70;1.33;;;25.20;57.50;;;;;;5036950;28;20439;-85
2022/02/18 07:29:20;;;;;;;1.40;1.17;;;25.30;57.50;;;;;;5036079;28;20473;-96
2022/02/18 07:31:47;;;;;;;1.70;1.17;;;25.30;57.50;;;;;;5036304;28;20450;-83
2022/02/18 07:34:15;;;;;;;1.20;1.00;;;25.30;57.60;;;;;;5035994;28;20443;-82
2022/02/18 07:36:42;;;;;;;2.07;1.03;;;25.30;57.70;;;;;;5036237;28;20461;-83
2022/02/18 07:39:09;;;;;;;2.23;1.20;;;25.30;57.80;;;;;;5035779;28;20481;-83
2022/02/18 07:41:36;;;;;;;2.03;1.33;;;25.20;57.80;;;;;;5035982;28;20525;-96
2022/02/18 07:44:02;;;;;;;3.10;1.87;;;25.30;57.90;;;;;;5035841;28;20522;-83
2022/02/18 07:46:29;;;;;;;1.83;1.20;;;25.30;57.90;;;;;;5035974;28;20463;-83
2022/02/18 07:48:56;;;;;;;1.63;1.20;;;25.30;57.90;;;;;;5035963;28;20446;-83
2022/02/18 07:51:24;;;;;;;1.80;1.40;;;25.30;57.90;;;;;;5037461;28;20446;-88
2022/02/18 07:53:51;;;;;;;2.40;1.63;;;25.30;57.80;;;;;;5035890;28;20465;-88
2022/02/18 07:56:18;;;;;;;1.97;1.17;;;25.40;56.90;;;;;;5036226;28;20787;-84
2022/02/18 07:58:44;;;;;;;2.50;1.40;;;25.40;57.70;;;;;;5040968;23;20491;-85
2022/02/18 08:01:14;;;;;;;1.63;1.30;;;25.40;57.90;;;;;;5015494;28;20451;-85
2022/02/18 08:03:41;;;;;;;1.70;1.23;;;25.40;57.80;;;;;;5015517;28;20502;-90
2022/02/18 08:06:08;;;;;;;7.10;3.00;;;25.40;57.70;;;;;;5015653;28;20816;-87
2022/02/18 08:08:38;;;;;;;9.30;3.33;;;25.30;57.40;;;;;;5023016;23;20483;-87
2022/02/18 08:11:05;;;;;;;6.37;2.27;;;25.20;57.10;;;;;;5010685;28;20456;-88
2022/02/18 08:13:32;;;;;;;5.47;1.97;;;25.10;57.30;;;;;;4999873;28;20915;-87
2022/02/18 08:15:58;;;;;;;3.43;1.90;;;25.10;57.80;;;;;;4997075;28;20528;-94
2022/02/18 08:18:25;;;;;;;4.47;2.07;;;25.10;57.80;;;;;;5015946;28;20463;-85
2022/02/18 08:20:52;;;;;;;5.20;2.30;;;25.10;57.80;;;;;;5028901;28;20456;-86
2022/02/18 08:23:19;;;;;;;2.23;1.67;;;25.20;57.80;;;;;;5022847;28;20470;-89
2022/02/18 08:25:50;;;;;;;3.13;2.20;;;25.20;57.90;;;;;;5015388;28;20435;-86
2022/02/18 08:28:18;;;;;;;3.00;2.37;;;25.20;57.80;;;;;;5018331;28;20442;-85
2022/02/18 08:30:45;;;;;;;2.47;1.60;;;25.20;57.80;;;;;;5027714;28;20446;-85
2022/02/18 08:33:12;;;;;;;3.53;1.90;;;25.20;57.90;;;;;;5028828;28;20443;-85
2022/02/18 08:35:39;;;;;;;11.03;1.90;;;25.30;57.80;;;;;;5034980;28;20538;-85
2022/02/18 08:38:06;;;;;;;5.93;2.33;;;25.30;57.80;;;;;;5034793;28;20447;-91
2022/02/18 08:40:35;;;;;;;4.10;1.73;;;25.30;57.70;;;;;;5034684;28;20478;-90
2022/02/18 08:43:04;;;;;;;4.30;1.90;;;25.40;57.80;;;;;;5034439;28;20438;-89
2022/02/18 08:45:31;;;;;;;3.17;1.50;;;25.40;57.70;;;;;;5034603;28;20542;-87
2022/02/18 08:47:58;;;;;;;2.80;1.70;;;25.40;57.70;;;;;;5034266;28;20459;-93
2022/02/18 08:50:26;;;;;;;4.33;1.60;;;25.40;57.70;;;;;;5035436;28;20450;-95
2022/02/18 08:52:53;;;;;;;4.60;1.70;;;25.50;57.80;;;;;;5034949;28;20445;-88
2022/02/18 08:55:21;;;;;;;3.27;1.80;;;25.40;57.70;;;;;;5034335;28;20439;-96
2022/02/18 08:57:51;;;;;;;4.60;2.00;;;25.40;57.80;;;;;;5034596;28;20449;-90
2022/02/18 09:00:19;;;;;;;2.90;1.40;;;25.40;57.90;;;;;;5034112;28;20554;-92
2022/02/18 09:02:46;;;;;;;1.97;1.60;;;25.40;57.80;;;;;;5034348;28;20442;-89
2022/02/18 09:05:13;;;;;;;2.13;1.40;;;25.40;57.90;;;;;;5034152;28;20442;-88
2022/02/18 09:07:41;;;;;;;2.07;1.30;;;25.50;58.10;;;;;;5033973;28;21001;-86
2022/02/18 09:10:08;;;;;;;2.93;1.67;;;25.40;57.80;;;;;;5033488;28;20482;-85
2022/02/18 09:12:37;;;;;;;1.90;1.60;;;25.40;58.20;;;;;;5030215;28;20447;-85
2022/02/18 09:15:05;;;;;;;2.97;1.70;;;25.50;57.00;;;;;;5046337;28;20847;-85
2022/02/18 09:17:33;;;;;;;1.80;1.40;;;25.50;56.80;;;;;;5034959;28;20462;-86
2022/02/18 09:20:00;;;;;;;2.93;1.50;;;25.60;56.90;;;;;;5032835;28;20853;-87
2022/02/18 09:22:27;;;;;;;2.50;1.53;;;25.60;56.90;;;;;;5033730;28;20446;-91
2022/02/18 09:24:54;;;;;;;3.80;1.80;;;25.50;57.00;;;;;;5034107;28;20465;-90
2022/02/18 09:27:21;;;;;;;1.63;1.30;;;25.50;57.70;;;;;;5034171;28;20454;-88
2022/02/18 09:29:48;;;;;;;1.90;1.30;;;25.50;57.80;;;;;;5033876;28;20453;-88
2022/02/18 09:32:15;;;;;;;2.90;1.70;;;25.50;57.90;;;;;;5032162;28;20446;-94
2022/02/18 09:34:44;;;;;;;3.27;1.60;;;25.40;57.80;;;;;;5033291;28;20439;-96
2022/02/18 09:37:15;;;;;;;3.90;2.20;;;25.50;57.90;;;;;;5036864;28;20450;-88
2022/02/18 09:39:42;;;;;;;2.87;1.63;;;25.50;58.00;;;;;;5033708;28;20481;-91
2022/02/18 09:42:09;;;;;;;4.23;1.60;;;25.50;57.90;;;;;;5024040;28;20606;-84
2022/02/18 09:44:37;;;;;;;3.30;1.63;;;25.50;57.90;;;;;;5018415;28;20435;-87
2022/02/18 09:47:04;;;;;;;2.10;1.60;;;25.60;57.50;;;;;;5028003;28;20866;-87
2022/02/18 09:49:34;;;;;;;5.63;1.67;;;25.60;57.20;;;;;;5030557;28;20534;-90
2022/02/18 09:52:03;;;;;;;3.53;1.33;;;25.70;57.10;;;;;;5024321;28;20546;-87
2022/02/18 09:54:31;;;;;;;2.33;1.47;;;25.70;57.10;;;;;;5032704;28;20478;-88
2022/02/18 09:57:00;;;;;;;2.20;1.63;;;25.70;57.10;;;;;;5032070;28;20436;-90
2022/02/18 10:18:28;;;;;;;2.70;1.47;;;25.50;58.00;;;;;;3945626;23;20487;-80
2022/02/18 10:26:08;;;;;;;2.43;1.53;;;25.60;58.00;;;;;;5106096;23;20489;-80
2022/02/18 10:28:35;;;;;;;3.47;1.83;;;25.60;58.00;;;;;;5475426;22;20854;-82
2022/02/18 10:31:04;;;;;;;2.30;1.17;;;25.60;58.00;;;;;;5074808;28;20444;-81
2022/02/18 10:33:35;;;;;;;2.80;1.80;;;25.70;57.60;;;;;;5077354;28;20441;-96
2022/02/18 10:36:04;;;;;;;5.33;1.73;;;25.70;57.70;;;;;;5066244;28;20437;-96
2022/02/18 10:38:32;;;;;;;2.23;1.70;;;25.70;57.90;;;;;;5078322;28;20432;-94
2022/02/18 10:40:59;;;;;;;1.80;1.33;;;25.60;58.00;;;;;;5079613;28;21006;-94
2022/02/18 10:43:27;;;;;;;2.33;1.40;;;25.60;58.00;;;;;;5076194;28;20441;-95
2022/02/18 10:45:59;;;;;;;4.47;1.60;;;25.70;58.00;;;;;;5061253;28;20458;-96
2022/02/18 10:48:26;;;;;;;3.60;2.10;;;25.60;58.00;;;;;;5048562;28;20439;-93
2022/02/18 10:51:10;;;;;;;1.90;1.23;;;25.60;58.00;;;;;;5041794;28;20780;-92
2022/02/18 10:53:39;;;;;;;2.00;1.30;;;25.70;57.90;;;;;;5037414;28;20437;-84
2022/02/18 10:56:07;;;;;;;2.87;1.90;;;25.70;58.10;;;;;;5037968;28;20451;-93
2022/02/18 10:58:36;;;;;;;2.73;1.40;;;25.80;58.00;;;;;;5038672;28;20886;-95
2022/02/18 11:01:05;;;;;;;2.80;1.52;;;25.70;58.10;;;;;;5039016;28;20460;-82
2022/02/18 11:03:32;;;;;;;4.80;1.57;;;25.70;58.10;;;;;;5036256;28;20222;-85
2022/02/18 11:06:12;;;;;;;3.27;1.63;;;25.70;57.90;;;;;;5054649;22;20494;-92
2022/02/18 11:08:46;;;;;;;2.33;1.50;;;25.80;58.20;;;;;;5078158;28;20500;-96
2022/02/18 11:11:13;;;;;;;4.13;1.97;;;25.70;58.20;;;;;;5077244;28;20432;-82
2022/02/18 11:13:41;;;;;;;1.93;1.43;;;25.80;58.60;;;;;;5076005;28;20440;-84
2022/02/18 11:16:10;;;;;;;2.50;1.20;;;25.80;58.60;;;;;;5087985;28;20468;-84
2022/02/18 11:18:39;;;;;;;2.10;1.20;;;25.80;58.60;;;;;;5095596;28;20605;-84
2022/02/18 11:21:05;;;;;;;4.60;1.60;;;25.90;58.60;;;;;;5096006;28;20876;-84
2022/02/18 11:23:35;;;;;;;1.80;1.20;;;25.90;58.50;;;;;;5095666;28;20440;-84
2022/02/18 11:26:02;;;;;;;2.23;1.63;;;26.00;58.60;;;;;;5096081;28;20451;-81
2022/02/18 11:28:29;;;;;;;1.87;1.30;;;26.10;58.60;;;;;;5095835;28;20450;-84
2022/02/18 11:30:58;;;;;;;2.30;1.80;;;26.00;58.50;;;;;;5096008;28;20448;-84
2022/02/18 11:33:39;;;;;;;2.43;1.20;;;26.00;58.40;;;;;;5095735;28;20447;-84
2022/02/18 11:36:23;;;;;;;2.17;1.33;;;26.00;58.40;;;;;;5095773;28;20938;-83
2022/02/18 11:38:59;;;;;;;1.70;1.30;;;26.00;58.50;;;;;;5095891;28;20793;-84
2022/02/18 11:41:46;;;;;;;2.50;1.40;;;26.00;58.50;;;;;;5095240;28;20483;-84
2022/02/18 11:44:14;;;;;;;2.10;1.70;;;26.00;58.50;;;;;;5095791;28;20810;-84
2022/02/18 11:46:41;;;;;;;2.00;1.40;;;26.00;58.40;;;;;;5095604;28;20463;-84
2022/02/18 11:49:10;;;;;;;2.17;1.30;;;26.00;58.50;;;;;;5095846;28;20817;-83
2022/02/18 11:51:41;;;;;;;1.70;1.20;;;26.00;58.50;;;;;;5095844;28;20492;-84
2022/02/18 11:54:24;;;;;;;1.20;1.00;;;26.00;58.50;;;;;;5095451;28;20435;-84
2022/02/18 11:56:58;;;;;;;1.93;1.20;;;26.00;58.50;;;;;;5095564;28;20431;-83
2022/02/18 11:59:43;;;;;;;1.90;1.20;;;26.00;58.50;;;;;;5095589;28;20439;-84
2022/02/18 12:02:10;;;;;;;2.20;1.40;;;26.00;58.50;;;;;;5095615;28;20447;-91
2022/02/18 12:04:38;;;;;;;2.50;1.50;;;26.00;58.50;;;;;;5095960;28;20527;-80
2022/02/18 12:07:28;;;;;;;2.40;1.40;;;26.00;58.60;;;;;;5094938;28;20484;-82
2022/02/18 12:10:06;;;;;;;1.40;1.10;;;26.00;58.30;;;;;;5094953;28;20504;-88
2022/02/18 12:12:35;;;;;;;1.30;1.10;;;26.00;58.00;;;;;;5095845;28;20428;-89
2022/02/18 12:15:15;;;;;;;1.93;1.33;;;26.00;58.40;;;;;;5094895;28;20460;-86
2022/02/18 12:17:44;;;;;;;1.40;1.30;;;26.00;58.60;;;;;;5086775;28;20425;-90
2022/02/18 12:20:15;;;;;;;1.97;1.10;;;26.00;58.50;;;;;;5092295;28;20938;-90
2022/02/18 12:22:43;;;;;;;3.23;1.80;;;26.10;58.30;;;;;;5095629;28;20782;-86
2022/02/18 12:25:29;;;;;;;1.90;1.70;;;26.10;58.60;;;;;;5094290;28;20444;-89
2022/02/18 12:28:20;;;;;;;5.33;1.43;;;26.20;59.00;;;;;;5088718;28;20438;-90
2022/02/18 12:30:57;;;;;;;2.33;1.30;;;26.20;60.00;;;;;;5089331;28;20447;-90
2022/02/18 12:33:24;;;;;;;6.90;1.50;;;26.20;61.10;;;;;;5095179;28;20439;-90
2022/02/18 12:35:51;;;;;;;5.13;2.27;;;26.20;61.80;;;;;;5095210;28;20845;-86
2022/02/18 12:38:18;;;;;;;3.47;1.50;;;26.20;61.60;;;;;;5088972;28;20432;-85
2022/02/18 12:40:48;;;;;;;5.10;3.13;;;26.20;61.60;;;;;;5088270;28;20476;-90
2022/02/18 12:43:17;;;;;;;8.70;3.17;;;26.30;61.50;;;;;;5090198;28;20425;-80
2022/02/18 12:45:50;;;;;;;14.90;4.03;;;26.20;61.50;;;;;;5085645;28;20468;-91
2022/02/18 12:48:30;;;;;;;9.97;3.97;;;26.30;61.70;;;;;;5084121;28;21005;-92
2022/02/18 12:51:00;;;;;;;16.50;4.73;;;26.30;61.70;;;;;;5097835;28;20423;-94
2022/02/18 12:53:27;;;;;;;14.70;4.70;;;26.20;62.30;;;;;;5098204;28;20448;-93
2022/02/18 12:55:55;;;;;;;11.80;4.00;;;26.20;61.90;;;;;;5098610;28;20439;-91
2022/02/18 12:58:22;;;;;;;11.70;4.93;;;26.30;61.90;;;;;;5099331;28;20458;-92
2022/02/18 13:00:50;;;;;;;15.00;4.60;;;26.20;61.70;;;;;;5098325;28;20990;-86
2022/02/18 13:03:17;;;;;;;19.63;5.00;;;26.30;61.60;;;;;;5086913;28;20452;-91
2022/02/18 13:05:44;;;;;;;14.00;4.30;;;26.30;61.90;;;;;;5074119;28;20476;-85
2022/02/18 13:08:24;;;;;;;9.60;3.40;;;26.30;61.30;;;;;;5074066;28;20448;-82
2022/02/18 13:10:53;;;;;;;9.90;3.23;;;26.20;60.40;;;;;;5078616;28;20429;-93
2022/02/18 13:13:23;;;;;;;9.60;4.07;;;26.10;60.50;;;;;;5078856;28;20459;-93
2022/02/18 13:15:51;;;;;;;11.00;3.33;;;26.20;60.90;;;;;;5073945;28;21025;-89